Time;durP1;ratioP1;P1;durP2;ratioP2;P2;SDS_P1;SDS_P2;PMS_P1;PMS_P2;Temp;Humidity;BMP_temperature;BMP_pressure;BME280_temperature;BME280_humidity;BME280_pressure;Samples;Min_cycle;Max_cycle;Signal;HPM_P1;HPM_P2
2022/06/13 00:00:19;;;;;;;1.88;1.77;;;20.40;66.20;;;;;;5020412;28;20513;-84
2022/06/13 00:02:46;;;;;;;2.05;1.35;;;20.50;66.20;;;;;;5021892;28;20093;-83
2022/06/13 00:05:12;;;;;;;1.33;1.27;;;20.50;66.30;;;;;;5020902;28;20463;-83
2022/06/13 00:07:38;;;;;;;1.40;1.30;;;20.60;66.40;;;;;;5029080;28;20044;-83
2022/06/13 00:10:05;;;;;;;1.70;1.60;;;20.60;66.50;;;;;;5033766;28;20026;-83
2022/06/13 00:12:30;;;;;;;4.38;1.80;;;20.60;66.70;;;;;;5041755;28;20021;-83
2022/06/13 00:14:56;;;;;;;3.20;2.08;;;20.70;68.00;;;;;;5024396;28;20025;-82
2022/06/13 00:17:22;;;;;;;4.15;2.63;;;20.60;72.00;;;;;;5036746;28;20056;-83
2022/06/13 00:19:47;;;;;;;2.55;2.30;;;20.40;75.10;;;;;;5041235;28;20029;-83
2022/06/13 00:22:13;;;;;;;3.03;2.38;;;20.10;77.90;;;;;;5025867;28;20084;-83
2022/06/13 00:24:39;;;;;;;8.55;2.55;;;19.80;80.10;;;;;;5009385;28;20096;-82
2022/06/13 00:27:05;;;;;;;2.83;2.58;;;19.60;81.70;;;;;;5034480;28;20022;-82
2022/06/13 00:29:31;;;;;;;3.47;2.90;;;19.50;84.90;;;;;;5029880;28;20072;-83
2022/06/13 00:31:56;;;;;;;4.93;3.00;;;19.30;89.10;;;;;;5022248;28;20078;-83
2022/06/13 00:34:22;;;;;;;5.80;3.35;;;19.00;91.40;;;;;;5023278;28;20030;-83
2022/06/13 00:36:48;;;;;;;4.50;3.13;;;18.80;93.30;;;;;;5025260;28;20073;-83
2022/06/13 00:39:14;;;;;;;4.88;3.80;;;18.70;94.70;;;;;;5035690;28;20034;-82
2022/06/13 00:41:42;;;;;;;6.38;3.88;;;18.60;96.20;;;;;;5035814;28;20032;-82
2022/06/13 00:44:18;;;;;;;5.53;3.83;;;18.50;97.00;;;;;;5035447;28;20029;-82
2022/06/13 00:46:44;;;;;;;6.93;3.58;;;18.40;98.10;;;;;;5035145;28;20037;-82
2022/06/13 00:49:19;;;;;;;5.07;3.47;;;18.30;98.70;;;;;;5029863;28;20029;-83
2022/06/13 00:52:20;;;;;;;4.90;3.55;;;18.30;99.30;;;;;;5011423;28;20474;-81
2022/06/13 00:54:49;;;;;;;4.50;3.58;;;18.30;99.90;;;;;;5027858;28;20046;-81
2022/06/13 00:57:26;;;;;;;3.83;2.70;;;18.30;99.90;;;;;;5028723;28;20475;-82
2022/06/13 00:59:56;;;;;;;5.10;3.53;;;18.30;99.90;;;;;;5025684;28;20053;-83
2022/06/13 01:02:22;;;;;;;4.53;3.70;;;18.40;99.90;;;;;;5021285;28;20450;-83
2022/06/13 01:04:52;;;;;;;6.03;3.40;;;18.50;99.90;;;;;;5003579;28;20116;-84
2022/06/13 01:07:19;;;;;;;4.78;4.05;;;18.40;99.90;;;;;;5055573;23;20037;-78
2022/06/13 01:12:32;;;;;;;7.95;4.38;;;18.30;99.90;;;;;;5052921;28;20029;-78
2022/06/13 01:15:08;;;;;;;5.25;4.18;;;18.20;99.90;;;;;;5052466;28;20025;-77
2022/06/13 01:17:34;;;;;;;8.50;4.88;;;18.10;99.90;;;;;;5040565;28;20524;-81
2022/06/13 01:20:26;;;;;;;6.20;4.28;;;18.00;99.90;;;;;;5032710;28;20029;-80
2022/06/13 01:23:06;;;;;;;4.93;4.33;;;17.90;99.90;;;;;;5032882;28;20025;-78
2022/06/13 01:25:56;;;;;;;4.32;3.88;;;17.80;99.90;;;;;;5033261;28;20252;-77
2022/06/13 01:28:33;;;;;;;5.13;4.00;;;17.80;99.90;;;;;;5032777;28;20108;-78
2022/06/13 01:31:22;;;;;;;5.82;4.43;;;17.80;99.90;;;;;;5033951;28;20028;-78
2022/06/13 01:34:06;;;;;;;5.10;4.22;;;17.70;99.90;;;;;;5032651;28;20048;-77
2022/06/13 01:37:19;;;;;;;5.93;4.30;;;17.70;99.90;;;;;;5033631;28;20049;-80
2022/06/13 01:40:13;;;;;;;10.70;4.60;;;17.70;99.90;;;;;;4997751;28;20050;-80
2022/06/13 01:43:06;;;;;;;6.00;4.53;;;17.60;99.90;;;;;;4991490;28;20105;-79
2022/06/13 01:45:41;;;;;;;7.40;4.45;;;17.60;99.90;;;;;;5026947;28;20034;-78
2022/06/13 01:48:30;;;;;;;4.80;3.97;;;17.70;99.90;;;;;;5032974;28;20030;-78
2022/06/13 01:51:14;;;;;;;5.88;4.75;;;17.80;99.90;;;;;;5032933;28;20025;-78
2022/06/13 01:53:45;;;;;;;4.93;4.22;;;17.80;99.90;;;;;;5032745;28;20025;-77
2022/06/13 01:56:15;;;;;;;9.27;4.30;;;17.80;99.90;;;;;;5033247;28;20055;-77
2022/06/13 01:59:04;;;;;;;4.13;3.58;;;17.80;99.90;;;;;;5033387;28;20427;-78
2022/06/13 02:01:53;;;;;;;5.38;3.85;;;17.90;99.90;;;;;;5013298;28;20045;-78
2022/06/13 02:04:24;;;;;;;6.10;3.78;;;18.00;99.90;;;;;;5013506;28;20058;-77
2022/06/13 02:07:08;;;;;;;7.47;3.53;;;17.90;99.90;;;;;;5019467;28;20037;-77
2022/06/13 02:09:47;;;;;;;6.80;3.97;;;17.90;99.90;;;;;;5048411;28;20025;-78
2022/06/13 02:12:15;;;;;;;8.32;3.90;;;18.00;99.90;;;;;;5033496;28;20044;-77
2022/06/13 02:15:00;;;;;;;8.85;4.60;;;18.00;99.90;;;;;;5032989;28;20493;-78
2022/06/13 02:17:31;;;;;;;6.30;4.75;;;17.80;99.90;;;;;;5033445;28;20057;-78
2022/06/13 02:20:02;;;;;;;5.20;4.70;;;17.70;99.90;;;;;;5032310;28;20026;-78
2022/06/13 02:22:38;;;;;;;4.85;4.22;;;17.50;99.90;;;;;;5033778;28;20819;-79
2022/06/13 02:25:18;;;;;;;4.97;4.47;;;17.50;99.90;;;;;;5036833;28;20509;-80
2022/06/13 02:27:58;;;;;;;7.47;4.60;;;17.40;99.90;;;;;;5036360;28;20496;-77
2022/06/13 02:30:32;;;;;;;6.10;4.55;;;17.20;99.90;;;;;;5036318;28;20101;-77
2022/06/13 02:33:07;;;;;;;4.50;4.20;;;17.20;99.90;;;;;;5036087;28;20117;-77
2022/06/13 02:35:38;;;;;;;4.70;4.30;;;17.20;99.90;;;;;;5035994;28;20025;-79
2022/06/13 02:38:18;;;;;;;4.07;3.75;;;17.20;99.90;;;;;;5044482;28;20031;-78
2022/06/13 02:41:09;;;;;;;4.00;3.70;;;17.30;99.90;;;;;;5054842;28;20028;-79
2022/06/13 02:43:41;;;;;;;5.75;4.18;;;17.30;99.90;;;;;;5009585;28;20041;-83
2022/06/13 02:46:17;;;;;;;5.82;4.10;;;17.30;99.90;;;;;;5030290;28;20026;-82
2022/06/13 02:48:46;;;;;;;4.10;3.53;;;17.30;99.90;;;;;;5036860;28;20068;-79
2022/06/13 02:51:40;;;;;;;3.80;3.50;;;17.30;99.90;;;;;;5015561;28;20021;-77
2022/06/13 02:54:45;;;;;;;4.40;4.00;;;17.30;99.90;;;;;;4998970;28;20026;-77
2022/06/13 02:57:27;;;;;;;4.13;3.28;;;17.30;99.90;;;;;;4936863;29;20101;-79
2022/06/13 03:00:25;;;;;;;5.40;3.38;;;17.30;99.90;;;;;;4942941;29;20027;-78
2022/06/13 03:03:03;;;;;;;3.75;3.30;;;17.30;99.90;;;;;;5019781;28;20052;-78
2022/06/13 03:05:50;;;;;;;3.45;3.15;;;17.30;99.90;;;;;;5036534;28;20029;-78
2022/06/13 03:08:21;;;;;;;3.33;2.95;;;17.40;99.90;;;;;;5044420;28;20036;-76
2022/06/13 03:10:57;;;;;;;3.05;2.85;;;17.50;99.90;;;;;;5010378;28;20068;-79
2022/06/13 03:13:36;;;;;;;4.18;3.47;;;17.50;99.90;;;;;;5037473;28;20392;-79
2022/06/13 03:16:26;;;;;;;3.83;3.20;;;17.50;99.90;;;;;;5038281;28;20014;-79
2022/06/13 03:18:57;;;;;;;4.13;3.55;;;17.50;99.90;;;;;;5020038;28;20363;-79
2022/06/13 03:21:41;;;;;;;3.60;3.30;;;17.50;99.90;;;;;;5021595;28;20026;-78
2022/06/13 03:24:20;;;;;;;3.95;3.08;;;17.50;99.90;;;;;;5021561;28;20072;-78
2022/06/13 03:27:00;;;;;;;3.78;2.63;;;17.40;99.90;;;;;;5020210;28;20029;-77
2022/06/13 03:29:31;;;;;;;3.65;3.20;;;17.40;99.90;;;;;;5036393;28;20032;-78
2022/06/13 03:32:08;;;;;;;4.32;2.83;;;17.40;99.90;;;;;;5041452;28;20032;-80
2022/06/13 03:34:38;;;;;;;3.40;3.13;;;17.40;99.90;;;;;;5054617;28;20026;-76
2022/06/13 03:37:07;;;;;;;6.05;3.53;;;17.30;99.90;;;;;;5043490;28;20125;-76
2022/06/13 03:39:39;;;;;;;4.35;3.70;;;17.30;99.90;;;;;;5043300;28;20104;-77
2022/06/13 03:42:55;;;;;;;3.38;3.08;;;17.30;99.90;;;;;;5041047;28;20077;-77
2022/06/13 03:45:34;;;;;;;3.58;3.03;;;17.30;99.90;;;;;;4979454;28;20060;-79
2022/06/13 03:48:11;;;;;;;3.10;2.80;;;17.30;99.90;;;;;;5053696;28;20044;-80
2022/06/13 03:50:44;;;;;;;3.35;3.05;;;17.30;99.90;;;;;;5055249;28;20017;-81
2022/06/13 03:53:23;;;;;;;3.20;2.90;;;17.30;99.90;;;;;;5040712;28;20028;-83
2022/06/13 03:56:01;;;;;;;3.50;3.20;;;17.40;99.90;;;;;;5056613;28;20033;-80
2022/06/13 03:58:55;;;;;;;3.25;2.95;;;17.40;99.90;;;;;;5046275;28;20018;-81
2022/06/13 04:01:40;;;;;;;3.08;2.83;;;17.40;99.90;;;;;;5042857;28;20448;-79
2022/06/13 04:04:25;;;;;;;3.47;3.17;;;17.50;99.90;;;;;;5044377;28;20029;-83
2022/06/13 04:06:51;;;;;;;4.82;2.70;;;17.40;99.90;;;;;;5040734;28;20092;-84
2022/06/13 04:09:23;;;;;;;3.40;3.10;;;17.40;99.90;;;;;;5040695;28;20065;-83
2022/06/13 04:11:57;;;;;;;2.78;2.58;;;17.40;99.90;;;;;;5040783;28;20027;-82
2022/06/13 04:14:45;;;;;;;3.42;3.13;;;17.40;99.90;;;;;;5041267;28;20073;-81
2022/06/13 04:17:22;;;;;;;4.50;2.35;;;17.40;99.90;;;;;;5040062;28;20021;-82
2022/06/13 04:19:55;;;;;;;2.67;2.47;;;17.50;99.90;;;;;;5046778;28;20021;-76
2022/06/13 04:22:46;;;;;;;2.90;2.40;;;17.50;99.90;;;;;;5045225;28;20040;-78
2022/06/13 04:25:59;;;;;;;3.00;2.70;;;17.50;99.90;;;;;;5041470;28;20457;-78
2022/06/13 04:28:33;;;;;;;2.92;2.63;;;17.60;99.90;;;;;;5017354;28;20033;-77
2022/06/13 04:31:00;;;;;;;3.63;2.63;;;17.70;99.90;;;;;;5035750;28;20021;-77
2022/06/13 04:33:38;;;;;;;2.70;2.50;;;17.70;99.90;;;;;;5035015;28;20116;-77
2022/06/13 04:36:07;;;;;;;2.70;2.50;;;17.70;99.90;;;;;;5034440;28;20021;-77
2022/06/13 04:38:34;;;;;;;2.45;2.33;;;17.70;99.90;;;;;;5044987;28;20029;-78
2022/06/13 04:41:04;;;;;;;2.35;2.15;;;17.70;99.90;;;;;;5055149;28;20021;-77
2022/06/13 04:43:36;;;;;;;2.13;1.90;;;17.70;99.90;;;;;;5055491;28;20367;-77
2022/06/13 04:46:13;;;;;;;;;;;17.70;99.90;;;;;;5043146;28;20018;-81
2022/06/13 04:48:42;;;;;;;2.72;2.40;;;17.70;99.90;;;;;;5043413;28;19948;-79
2022/06/13 04:51:18;;;;;;;2.42;2.15;;;17.70;99.90;;;;;;5035916;28;20482;-77
2022/06/13 04:54:04;;;;;;;2.97;2.15;;;17.70;99.90;;;;;;5018766;28;20057;-78
2022/06/13 04:56:32;;;;;;;2.42;2.22;;;17.90;99.90;;;;;;5036224;28;20088;-78
2022/06/13 04:58:59;;;;;;;1.90;1.80;;;18.00;99.90;;;;;;5034837;28;20057;-77
2022/06/13 05:01:35;;;;;;;2.10;2.00;;;18.00;99.90;;;;;;5034389;28;20029;-78
2022/06/13 05:04:09;;;;;;;1.77;1.67;;;18.00;99.90;;;;;;5015960;28;20025;-78
2022/06/13 05:06:53;;;;;;;1.77;1.67;;;18.10;99.90;;;;;;5036268;28;20094;-78
2022/06/13 05:09:24;;;;;;;4.70;1.63;;;18.10;99.90;;;;;;5045322;28;20025;-78
2022/06/13 05:11:50;;;;;;;2.47;1.63;;;18.10;99.90;;;;;;5053682;28;20021;-76
2022/06/13 05:14:25;;;;;;;1.98;1.52;;;18.10;99.90;;;;;;5034967;28;20080;-77
2022/06/13 05:17:05;;;;;;;1.42;1.40;;;18.20;99.90;;;;;;5047448;28;20017;-78
2022/06/13 05:20:08;;;;;;;1.65;1.50;;;18.30;99.90;;;;;;5033699;28;20367;-76
2022/06/13 05:22:58;;;;;;;2.08;1.30;;;18.40;99.90;;;;;;5033972;28;20032;-77
2022/06/13 05:25:23;;;;;;;2.92;1.55;;;18.30;99.90;;;;;;5034262;28;20112;-77
2022/06/13 05:27:49;;;;;;;1.58;1.35;;;18.10;99.90;;;;;;5033222;28;20076;-79
2022/06/13 05:30:17;;;;;;;1.50;1.40;;;18.00;99.90;;;;;;5033099;28;20021;-78
2022/06/13 05:32:43;;;;;;;1.50;1.38;;;18.00;99.90;;;;;;5032950;28;20029;-79
2022/06/13 05:35:32;;;;;;;1.65;1.48;;;17.90;99.90;;;;;;5033267;28;20493;-78
2022/06/13 05:38:00;;;;;;;1.45;1.35;;;17.80;99.90;;;;;;5041612;28;20049;-79
2022/06/13 05:40:26;;;;;;;1.50;1.40;;;17.80;99.90;;;;;;5053147;28;20033;-79
2022/06/13 05:42:52;;;;;;;2.38;1.30;;;17.90;99.90;;;;;;5041571;28;20093;-77
2022/06/13 05:45:22;;;;;;;2.13;1.45;;;18.00;99.90;;;;;;5060677;28;20033;-76
2022/06/13 05:47:49;;;;;;;1.38;1.25;;;18.00;99.90;;;;;;5056446;28;20017;-79
2022/06/13 05:50:18;;;;;;;1.52;1.20;;;18.00;99.90;;;;;;5040710;28;20036;-77
2022/06/13 05:52:44;;;;;;;1.90;1.40;;;18.00;99.90;;;;;;5040464;28;20036;-80
2022/06/13 05:55:11;;;;;;;1.73;1.20;;;18.30;99.90;;;;;;5039777;28;20053;-79
2022/06/13 05:57:38;;;;;;;1.40;1.30;;;18.80;99.90;;;;;;5040329;28;20030;-76
2022/06/13 06:00:04;;;;;;;0.77;0.75;;;21.00;99.90;;;;;;5040396;28;20021;-81
2022/06/13 06:02:30;;;;;;;1.17;1.08;;;22.30;98.20;;;;;;5042139;28;20207;-78
2022/06/13 06:04:55;;;;;;;2.75;1.42;;;22.10;95.40;;;;;;5042195;28;20048;-79
2022/06/13 06:07:21;;;;;;;1.20;1.10;;;21.50;95.30;;;;;;5002008;28;1165728;-81
2022/06/13 06:09:47;;;;;;;1.00;1.00;;;21.20;96.60;;;;;;5059948;28;20028;-80
2022/06/13 06:12:13;;;;;;;1.58;1.15;;;21.00;96.90;;;;;;5064466;28;20059;-81
2022/06/13 06:14:38;;;;;;;1.63;1.30;;;20.90;97.30;;;;;;5060014;28;20021;-79
2022/06/13 06:17:04;;;;;;;1.40;1.30;;;21.10;97.00;;;;;;5044187;28;20013;-80
2022/06/13 06:19:29;;;;;;;2.42;1.30;;;21.20;97.30;;;;;;5047024;28;20081;-83
2022/06/13 06:21:55;;;;;;;1.80;1.48;;;22.90;95.70;;;;;;5034458;28;20033;-82
2022/06/13 06:24:21;;;;;;;3.22;1.42;;;24.50;90.40;;;;;;5048875;28;20167;-81
2022/06/13 06:26:46;;;;;;;2.10;1.20;;;24.10;85.90;;;;;;5038721;28;20036;-81
2022/06/13 06:29:12;;;;;;;1.00;0.88;;;23.20;88.20;;;;;;5045826;28;20027;-78
2022/06/13 06:31:38;;;;;;;1.10;1.00;;;22.70;91.50;;;;;;5047246;28;20038;-80
2022/06/13 06:34:04;;;;;;;0.95;0.95;;;23.20;90.70;;;;;;5029413;28;20021;-80
2022/06/13 06:36:29;;;;;;;1.02;1.02;;;23.10;90.20;;;;;;5029307;28;20120;-79
2022/06/13 06:38:56;;;;;;;1.25;1.15;;;23.50;90.30;;;;;;5056595;28;20027;-80
2022/06/13 06:41:21;;;;;;;2.92;1.20;;;25.20;86.80;;;;;;5045124;28;20025;-80
2022/06/13 06:43:47;;;;;;;1.67;1.58;;;26.40;78.30;;;;;;5044071;28;20036;-81
2022/06/13 06:46:14;;;;;;;1.58;1.13;;;26.50;75.20;;;;;;5051740;28;20069;-83
2022/06/13 06:48:40;;;;;;;1.20;1.10;;;27.10;74.20;;;;;;5040872;28;20105;-80
2022/06/13 06:51:09;;;;;;;1.38;1.23;;;26.80;72.80;;;;;;5043429;28;20026;-82
2022/06/13 07:01:50;;;;;;;1.77;1.55;;;23.40;82.90;;;;;;5043246;28;20032;-79
2022/06/13 07:04:15;;;;;;;1.73;1.30;;;22.70;85.40;;;;;;5042858;28;20053;-79
2022/06/13 07:06:41;;;;;;;1.55;1.20;;;22.20;87.90;;;;;;5045545;28;20020;-80
2022/06/13 07:09:07;;;;;;;1.67;1.58;;;21.70;90.90;;;;;;5033773;28;20029;-80
2022/06/13 07:14:23;;;;;;;1.88;1.38;;;21.30;92.40;;;;;;5061600;28;20531;-82
2022/06/13 07:16:49;;;;;;;3.15;1.50;;;21.20;92.90;;;;;;5061980;28;20099;-79
2022/06/13 07:19:15;;;;;;;1.80;1.40;;;21.00;93.30;;;;;;5054437;28;20024;-79
2022/06/13 07:21:41;;;;;;;5.80;1.98;;;20.70;94.00;;;;;;5040235;28;20472;-79
2022/06/13 07:24:06;;;;;;;2.10;1.88;;;20.50;94.90;;;;;;5021986;28;20030;-79
2022/06/13 07:26:32;;;;;;;2.55;1.65;;;20.40;95.70;;;;;;5040090;28;20512;-78
2022/06/13 07:28:57;;;;;;;2.30;1.70;;;20.30;96.30;;;;;;5039748;28;20034;-79
2022/06/13 07:31:41;;;;;;;2.03;1.58;;;20.20;97.00;;;;;;5052208;28;20029;-79
2022/06/13 07:34:12;;;;;;;2.67;2.47;;;20.10;97.30;;;;;;5047413;28;20032;-78
2022/06/13 07:36:38;;;;;;;3.77;2.00;;;20.00;97.60;;;;;;5025986;28;20037;-79
2022/06/13 07:39:03;;;;;;;3.28;2.10;;;19.90;98.70;;;;;;5047431;28;20105;-80
2022/06/13 07:41:29;;;;;;;2.78;2.13;;;20.00;98.50;;;;;;5022229;28;20030;-78
2022/06/13 07:43:56;;;;;;;3.10;2.08;;;20.30;97.90;;;;;;5040603;28;20025;-79
2022/06/13 07:46:26;;;;;;;2.30;2.05;;;20.50;97.70;;;;;;5041634;28;20033;-79
2022/06/13 07:48:52;;;;;;;2.67;2.35;;;20.60;96.90;;;;;;5022764;28;20307;-78
2022/06/13 07:51:18;;;;;;;4.47;1.92;;;20.60;96.10;;;;;;5040311;28;20520;-78
2022/06/13 07:53:43;;;;;;;10.27;3.03;;;20.60;96.00;;;;;;5020800;28;20478;-80
2022/06/13 07:56:15;;;;;;;4.60;2.42;;;20.70;96.00;;;;;;5045682;28;20072;-79
2022/06/13 07:58:42;;;;;;;5.70;2.28;;;21.00;96.00;;;;;;5039994;28;20022;-79
2022/06/13 08:01:10;;;;;;;4.50;2.53;;;21.40;93.80;;;;;;5041340;28;20026;-78
2022/06/13 08:03:36;;;;;;;4.90;2.17;;;21.70;92.90;;;;;;5040254;28;20052;-77
2022/06/13 08:06:04;;;;;;;4.40;2.25;;;21.60;93.50;;;;;;5040078;28;20013;-79
2022/06/13 08:08:30;;;;;;;3.60;2.42;;;21.60;93.50;;;;;;5046123;28;20036;-78
2022/06/13 08:10:58;;;;;;;2.40;2.00;;;21.70;93.20;;;;;;5042019;28;20025;-78
2022/06/13 08:13:25;;;;;;;2.85;2.20;;;22.00;91.20;;;;;;5057747;28;20024;-81
2022/06/13 08:15:51;;;;;;;3.55;1.88;;;22.20;89.40;;;;;;5058519;28;20481;-78
2022/06/13 08:18:19;;;;;;;4.07;2.15;;;22.20;88.70;;;;;;5040897;28;20087;-79
2022/06/13 08:20:45;;;;;;;3.58;2.00;;;22.20;87.60;;;;;;5040893;28;20032;-80
2022/06/13 08:23:13;;;;;;;4.60;2.28;;;22.10;87.30;;;;;;5038487;28;20029;-79
2022/06/13 08:25:39;;;;;;;3.03;2.35;;;22.00;86.70;;;;;;5050579;28;20058;-79
2022/06/13 08:28:06;;;;;;;3.97;2.47;;;21.80;86.90;;;;;;5059020;28;20103;-79
2022/06/13 08:30:46;;;;;;;3.85;2.55;;;21.70;87.50;;;;;;5046696;28;20100;-79
2022/06/13 08:33:13;;;;;;;5.03;2.65;;;21.60;88.30;;;;;;5040409;28;20081;-79
2022/06/13 08:35:40;;;;;;;4.25;2.65;;;21.70;87.50;;;;;;5041584;28;20021;-78
2022/06/13 08:38:06;;;;;;;5.88;2.17;;;21.70;87.00;;;;;;5046056;28;20450;-78
2022/06/13 08:40:53;;;;;;;6.50;2.40;;;22.00;87.20;;;;;;5049199;28;20025;-79
2022/06/13 08:44:10;;;;;;;4.20;1.90;;;22.40;85.00;;;;;;5040330;28;20056;-79
2022/06/13 08:46:51;;;;;;;5.35;1.80;;;22.60;82.00;;;;;;4998052;28;20033;-79
2022/06/13 08:49:25;;;;;;;6.55;2.20;;;22.70;78.00;;;;;;5055809;28;20056;-81
2022/06/13 08:52:06;;;;;;;3.58;1.83;;;22.50;77.80;;;;;;5039370;28;20036;-78
2022/06/13 08:54:34;;;;;;;3.90;1.80;;;22.50;79.30;;;;;;5037916;28;20116;-80
2022/06/13 08:57:05;;;;;;;6.40;2.65;;;22.20;78.10;;;;;;5038396;28;20032;-79
2022/06/13 08:59:39;;;;;;;4.37;2.47;;;22.10;78.90;;;;;;5021301;28;20021;-79
2022/06/13 09:02:28;;;;;;;4.40;1.90;;;22.10;80.60;;;;;;5018001;28;20479;-77
2022/06/13 09:05:28;;;;;;;3.30;2.05;;;22.20;77.20;;;;;;5017919;28;20494;-78
2022/06/13 09:08:01;;;;;;;3.72;1.80;;;22.30;75.60;;;;;;5038655;28;20062;-78
2022/06/13 09:10:37;;;;;;;6.05;2.45;;;22.40;75.40;;;;;;5030370;28;20790;-80
2022/06/13 09:13:21;;;;;;;4.25;1.63;;;22.50;74.00;;;;;;5022769;28;20021;-80
2022/06/13 09:16:12;;;;;;;4.20;1.80;;;22.70;74.10;;;;;;5023288;28;20022;-80
2022/06/13 09:18:45;;;;;;;2.92;1.58;;;23.10;72.30;;;;;;5041668;28;20036;-82
2022/06/13 09:21:34;;;;;;;3.67;1.45;;;23.30;68.90;;;;;;5041543;28;20470;-81
2022/06/13 09:24:45;;;;;;;2.63;1.42;;;23.20;69.40;;;;;;5022909;28;20470;-80
2022/06/13 09:27:24;;;;;;;4.35;1.60;;;23.10;68.50;;;;;;4961194;29;20038;-81
2022/06/13 09:29:56;;;;;;;9.15;2.08;;;23.20;69.10;;;;;;5032102;28;20080;-81
2022/06/13 09:32:29;;;;;;;9.00;2.03;;;23.20;66.30;;;;;;5025676;28;20049;-79
2022/06/13 09:35:04;;;;;;;4.13;1.67;;;23.20;66.20;;;;;;5046403;28;20048;-81
2022/06/13 09:37:44;;;;;;;6.47;1.80;;;23.10;66.60;;;;;;5056849;28;20021;-80
2022/06/13 09:40:14;;;;;;;7.97;1.92;;;23.10;65.00;;;;;;5052949;28;20060;-80
2022/06/13 09:42:54;;;;;;;8.55;2.00;;;23.00;64.30;;;;;;5050073;28;20013;-82
2022/06/13 09:45:26;;;;;;;3.60;1.50;;;23.00;63.30;;;;;;5056920;28;20025;-79
2022/06/13 09:48:06;;;;;;;5.90;1.75;;;23.10;63.50;;;;;;5057007;28;20041;-80
2022/06/13 09:50:48;;;;;;;9.18;1.80;;;23.30;63.90;;;;;;5056084;28;20025;-82
2022/06/13 09:53:33;;;;;;;3.05;1.70;;;23.70;61.80;;;;;;5051772;28;20017;-81
2022/06/13 09:56:32;;;;;;;6.18;1.88;;;24.10;60.30;;;;;;5045403;28;20033;-80
2022/06/13 09:59:08;;;;;;;8.20;1.63;;;24.50;57.00;;;;;;5028139;28;20053;-80
2022/06/13 10:01:39;;;;;;;3.20;2.08;;;24.80;57.60;;;;;;5047144;28;20025;-80
2022/06/13 10:04:30;;;;;;;6.18;1.75;;;25.00;57.20;;;;;;5024616;28;20026;-80
2022/06/13 10:07:23;;;;;;;2.97;1.33;;;25.20;57.40;;;;;;4979883;28;20074;-78
2022/06/13 10:10:37;;;;;;;5.40;1.88;;;25.00;56.20;;;;;;5061525;28;20187;-80
2022/06/13 10:13:48;;;;;;;5.88;1.95;;;24.20;57.10;;;;;;4994687;28;20843;-81
2022/06/13 10:16:25;;;;;;;6.38;2.08;;;23.70;60.00;;;;;;5049805;28;20034;-80
2022/06/13 10:18:56;;;;;;;3.65;1.90;;;23.70;60.60;;;;;;5056928;28;20096;-78
2022/06/13 10:21:25;;;;;;;5.22;1.65;;;24.00;60.40;;;;;;5056924;28;20033;-79
2022/06/13 10:24:10;;;;;;;5.10;1.45;;;24.50;58.20;;;;;;5056504;28;20014;-79
2022/06/13 10:26:49;;;;;;;6.72;1.52;;;24.90;56.80;;;;;;5057036;28;20055;-80
2022/06/13 10:29:46;;;;;;;2.35;1.58;;;25.00;56.80;;;;;;5057069;28;20057;-80
2022/06/13 10:32:30;;;;;;;4.55;1.98;;;24.90;57.30;;;;;;5056764;28;20044;-81
2022/06/13 10:35:18;;;;;;;6.18;2.67;;;24.60;55.70;;;;;;5056081;28;20128;-80
2022/06/13 10:38:13;;;;;;;5.97;2.15;;;24.50;57.30;;;;;;5046584;28;20462;-80
2022/06/13 10:40:40;;;;;;;3.05;1.30;;;24.20;55.20;;;;;;5073425;28;20021;-81
2022/06/13 10:43:06;;;;;;;5.05;1.67;;;24.10;55.90;;;;;;5074568;28;20055;-80
2022/06/13 10:45:34;;;;;;;3.22;1.58;;;24.30;54.90;;;;;;5038252;28;20026;-81
2022/06/13 10:48:34;;;;;;;4.63;1.98;;;24.50;54.50;;;;;;5057609;28;20017;-79
2022/06/13 10:51:03;;;;;;;2.63;1.50;;;24.70;53.10;;;;;;5058996;28;20068;-80
2022/06/13 10:53:50;;;;;;;8.38;2.00;;;24.80;53.70;;;;;;5055001;28;20060;-80
2022/06/13 10:56:22;;;;;;;2.75;1.52;;;25.00;53.90;;;;;;5036517;28;20175;-83
2022/06/13 10:58:50;;;;;;;4.32;1.77;;;25.40;53.90;;;;;;5018169;28;20029;-82
2022/06/13 11:01:21;;;;;;;5.45;1.95;;;25.60;53.00;;;;;;5033231;28;20026;-80
2022/06/13 11:04:17;;;;;;;5.25;1.65;;;25.50;54.40;;;;;;5034694;28;20018;-79
2022/06/13 11:06:49;;;;;;;4.70;1.88;;;25.10;54.90;;;;;;5035737;28;20033;-80
2022/06/13 11:09:23;;;;;;;8.23;1.85;;;24.90;55.10;;;;;;5046775;28;20034;-78
2022/06/13 11:11:55;;;;;;;5.40;1.65;;;24.60;54.00;;;;;;5056072;28;20021;-80
2022/06/13 11:22:37;;;;;;;2.95;1.67;;;24.40;55.10;;;;;;5056962;28;20046;-79
2022/06/13 11:23:08;;;;;;;2.65;1.67;;;25.60;53.00;;;;;;5036764;28;20025;-80
2022/06/13 11:25:36;;;;;;;2.25;1.35;;;25.90;50.90;;;;;;5046810;28;20018;-82
2022/06/13 11:28:07;;;;;;;3.45;1.40;;;26.00;50.10;;;;;;5055353;28;20029;-81
2022/06/13 11:30:43;;;;;;;3.92;1.35;;;26.10;49.90;;;;;;5055949;28;20016;-80
2022/06/13 11:33:37;;;;;;;3.97;1.98;;;25.80;49.40;;;;;;5054855;28;20041;-81
2022/06/13 11:36:14;;;;;;;2.10;1.38;;;25.50;50.40;;;;;;5037305;28;20025;-81
2022/06/13 11:39:06;;;;;;;2.97;1.27;;;25.40;50.00;;;;;;5062412;28;20088;-81
2022/06/13 11:41:44;;;;;;;5.45;2.15;;;25.00;50.70;;;;;;5050107;28;20033;-80
2022/06/13 11:44:17;;;;;;;8.70;2.13;;;24.60;52.20;;;;;;5053677;28;20040;-81
2022/06/13 11:47:02;;;;;;;4.25;1.63;;;24.20;52.70;;;;;;5037800;28;20034;-79
2022/06/13 11:49:34;;;;;;;5.03;2.33;;;24.20;53.90;;;;;;5055301;28;20081;-80
2022/06/13 11:52:03;;;;;;;3.53;1.38;;;24.70;52.60;;;;;;5054929;28;20029;-80
2022/06/13 11:54:47;;;;;;;4.70;1.58;;;25.30;51.60;;;;;;5054465;28;20017;-81
2022/06/13 11:57:15;;;;;;;3.63;1.60;;;25.50;50.50;;;;;;5053150;28;20040;-78
2022/06/13 11:59:49;;;;;;;4.82;1.55;;;25.50;51.00;;;;;;5037851;28;20029;-81
2022/06/13 12:02:23;;;;;;;4.22;1.35;;;25.90;50.20;;;;;;5037016;28;20068;-81
2022/06/13 12:04:56;;;;;;;6.88;2.25;;;26.30;48.80;;;;;;5053962;28;20022;-83
2022/06/13 12:07:28;;;;;;;4.28;1.45;;;26.50;47.40;;;;;;5061092;28;20029;-82
2022/06/13 12:09:57;;;;;;;3.20;1.38;;;26.40;47.40;;;;;;5066704;28;20268;-81
2022/06/13 12:12:26;;;;;;;7.15;1.88;;;26.20;48.00;;;;;;5073241;28;20065;-82
2022/06/13 12:14:53;;;;;;;5.00;1.50;;;25.70;48.70;;;;;;5073634;28;20028;-81
2022/06/13 12:18:00;;;;;;;2.53;1.40;;;25.00;50.00;;;;;;5062702;28;20038;-81
2022/06/13 12:20:49;;;;;;;4.90;1.75;;;24.60;51.30;;;;;;5053678;28;20030;-81
2022/06/13 12:23:26;;;;;;;5.80;1.83;;;24.30;52.10;;;;;;5052762;28;20045;-80
2022/06/13 12:26:31;;;;;;;8.00;1.40;;;24.40;51.30;;;;;;5053217;28;20013;-80
2022/06/13 12:29:08;;;;;;;5.53;1.60;;;24.50;50.20;;;;;;5051825;28;20040;-79
2022/06/13 12:31:44;;;;;;;2.72;1.50;;;24.40;50.20;;;;;;5053946;28;20096;-80
2022/06/13 12:34:20;;;;;;;5.18;1.40;;;24.20;50.90;;;;;;5054191;28;20037;-81
2022/06/13 12:36:56;;;;;;;4.97;1.38;;;24.60;48.60;;;;;;5058593;28;20020;-79
2022/06/13 12:39:28;;;;;;;1.52;1.00;;;25.00;47.00;;;;;;5058606;28;20029;-81
2022/06/13 12:42:03;;;;;;;6.38;1.70;;;24.70;47.20;;;;;;5053713;28;20033;-80
2022/06/13 12:44:38;;;;;;;3.85;1.10;;;24.90;46.80;;;;;;5052239;28;20080;-80
2022/06/13 12:47:15;;;;;;;4.30;1.70;;;25.30;47.00;;;;;;5053550;28;20052;-81
2022/06/13 12:50:00;;;;;;;5.15;1.70;;;25.30;45.70;;;;;;5038574;28;20048;-79
2022/06/13 12:52:53;;;;;;;4.55;1.52;;;25.60;45.10;;;;;;5055328;28;20049;-81
2022/06/13 12:55:34;;;;;;;4.20;1.20;;;25.90;45.30;;;;;;5032925;28;20046;-82
2022/06/13 12:58:26;;;;;;;4.93;1.30;;;26.30;44.40;;;;;;5033736;28;20041;-80
2022/06/13 13:01:01;;;;;;;7.28;1.30;;;26.60;42.30;;;;;;5031377;28;20025;-80
2022/06/13 13:03:45;;;;;;;8.43;1.65;;;27.00;43.50;;;;;;5030133;28;20038;-83
2022/06/13 13:09:00;;;;;;;2.58;1.40;;;27.40;41.60;;;;;;5052309;28;20047;-82
2022/06/13 13:11:56;;;;;;;3.08;1.48;;;27.30;41.20;;;;;;5059199;28;20092;-81
2022/06/13 13:14:41;;;;;;;3.50;1.23;;;27.20;41.70;;;;;;5039272;28;20086;-81
2022/06/13 13:17:34;;;;;;;2.20;1.30;;;27.10;41.50;;;;;;5056613;28;20116;-80
2022/06/13 13:20:25;;;;;;;3.03;1.10;;;27.20;41.10;;;;;;5057103;28;20021;-81
2022/06/13 13:22:57;;;;;;;3.00;1.27;;;27.40;40.60;;;;;;5056195;28;20127;-82
2022/06/13 13:26:02;;;;;;;2.72;1.23;;;27.30;40.50;;;;;;5039008;28;20021;-80
2022/06/13 13:29:32;;;;;;;5.22;1.42;;;27.10;40.80;;;;;;5056543;28;20055;-81
2022/06/13 13:32:07;;;;;;;4.30;1.70;;;27.00;39.90;;;;;;4955980;29;20110;-83
2022/06/13 13:34:38;;;;;;;2.55;1.10;;;27.10;39.60;;;;;;4939860;29;20035;-82
2022/06/13 13:37:37;;;;;;;2.88;1.23;;;27.10;40.50;;;;;;5035293;28;20041;-81
2022/06/13 13:40:43;;;;;;;3.40;1.17;;;27.10;40.20;;;;;;5072629;28;20488;-81
2022/06/13 13:43:24;;;;;;;2.95;1.40;;;26.80;40.20;;;;;;5079224;28;20040;-83
2022/06/13 13:46:05;;;;;;;2.50;1.30;;;26.50;40.50;;;;;;5043221;28;20045;-81
2022/06/13 13:48:44;;;;;;;3.90;1.73;;;26.30;40.80;;;;;;5058363;28;20454;-82
2022/06/13 13:51:31;;;;;;;3.45;1.60;;;26.00;41.50;;;;;;5058354;28;20039;-83
2022/06/13 13:54:14;;;;;;;4.07;1.38;;;25.80;42.80;;;;;;5056364;28;20124;-82
2022/06/13 13:56:50;;;;;;;4.00;1.40;;;25.80;42.20;;;;;;5037692;28;20074;-82